KBJI/BJI METAR and TAF weather

Enter ICAO airport designator
Station Type Date Time Source
KBJI METAR 2019/05/19 20:35 UTC NOAA

KBJI 192035Z AUTO 04011G15KT 10SM CLR 11/M03 A2994 RMK AO2 T01101034


Station Type Date Time Source
KBJI Decoded METAR 2019/05/19 20:35 UTC NOAA

Bemidji, MN, United States (KBJI) 47-30N 094-56W 420M
May 19, 2019 - 04:35 PM EDT / 2019.05.19 2035 UTC
Wind: from the NE (040 degrees) at 13 MPH (11 KT) gusting to 17 MPH (15 KT):0
Visibility: 10 mile(s):0
Sky conditions: clear
Temperature: 51.8 F (11.0 C)
Dew Point: 25.9 F (-3.4 C)
Relative Humidity: 36%
Pressure (altimeter): 29.94 in. Hg (1013 hPa)
ob: KBJI 192035Z AUTO 04011G15KT 10SM CLR 11/M03 A2994 RMK AO2 T01101034
cycle: 20

Station Type Date Time Source
KBJI TAF 2019/05/19 18:24 UTC NOAA

TAF KBJI 191721Z 1918/2018 04007KT P6SM SCT035 BKN050
FM191900 03008KT P6SM BKN100
FM200000 02007KT P6SM BKN150
FM200300 00000KT P6SM SCT150

Example: see airport list